| time (UTC) | temp F | wind direction | speed MPH | gust MPH | rain 1hr in | rain 24hr in | rain mn in | humidity % | barometer mb |
| 20260904100022 | 50 | 0.0 | 0.0 | 0.00 | 0.00 | 0.00 | 84 | 1029.3 | |
| 20260904093018 | 51 | 0.0 | 0.0 | 0.00 | 0.00 | 0.00 | 83 | 1028.9 | |
| 20260904090017 | 50 | 0.0 | 0.0 | 0.00 | 0.00 | 0.00 | 82 | 1028.7 | |
| 20260904083059 | 51 | 0.0 | 0.0 | 0.00 | 0.00 | 0.00 | 81 | 1028.4 | |
| 20260904080017 | 52 | 0.0 | 0.0 | 0.00 | 0.00 | 0.00 | 79 | 1028.3 | |
| 20260904073057 | 53 | 0.0 | 0.0 | 0.00 | 0.00 | 0.00 | 77 | 1028.4 | |
| 20260904070017 | 54 | 0.0 | 0.0 | 0.00 | 0.00 | 0.00 | 74 | 1028.3 | |
| 20260904063017 | 56 | 270 | 2.0 | 6.0 | 0.00 | 0.00 | 0.00 | 71 | 1028.4 |
| 20260904060017 | 56 | 0.0 | 6.0 | 0.00 | 0.00 | 0.00 | 68 | 1028.3 | |
| 20260904053037 | 57 | 0.0 | 0.0 | 0.00 | 0.00 | 0.00 | 64 | 1028.7 | |
| 20260904050016 | 60 | 0.0 | 4.0 | 0.00 | 0.00 | 0.00 | 60 | 1029.2 | |
| 20260904043017 | 60 | 0.0 | 0.0 | 0.00 | 0.00 | 0.00 | 60 | 1029.3 | |
| 20260904040017 | 61 | 0.0 | 0.0 | 0.00 | 0.00 | 0.00 | 65 | 1029.3 | |
| 20260904033056 | 61 | 0.0 | 0.0 | 0.00 | 0.00 | 0.00 | 62 | 1029.3 | |
| 20260904030039 | 59 | 0.0 | 0.0 | 0.00 | 0.00 | 0.00 | 59 | 1029.4 | |
| 20260904023017 | 60 | 0.0 | 0.0 | 0.00 | 0.00 | 0.00 | 63 | 1030.5 | |
| 20260904020017 | 58 | 338 | 1.0 | 9.0 | 0.00 | 0.00 | 0.00 | 68 | 1031.4 |
| 20260904013016 | 57 | 0.0 | 0.0 | 0.00 | 0.00 | 0.00 | 66 | 1031.2 | |
| 20260904010016 | 56 | 0.0 | 7.0 | 0.00 | 0.00 | 0.00 | 66 | 1031.4 | |
| 20260904003016 | 55 | 0 | 1.0 | 6.0 | 0.00 | 0.00 | 0.00 | 72 | 1031.3 |
| 20260904000018 | 54 | 45 | 2.0 | 5.0 | 0.00 | 0.00 | 0.00 | 72 | 1031.3 |
| 20260903233018 | 54 | 0 | 2.0 | 4.0 | 0.00 | 0.00 | 0.00 | 76 | 1031.2 |
| 20260903230019 | 52 | 0 | 2.0 | 4.0 | 0.00 | 0.00 | 0.00 | 78 | 1030.7 |
| 20260903223039 | 51 | 23 | 1.0 | 5.0 | 0.00 | 0.00 | 0.00 | 78 | 1030.4 |
| 20260903220041 | 48 | 23 | 1.0 | 6.0 | 0.00 | 0.00 | 0.00 | 84 | 1030.4 |
| 20260903213018 | 45 | 0.0 | 5.0 | 0.00 | 0.00 | 0.00 | 88 | 1029.6 | |
| 20260903210018 | 43 | 0.0 | 0.0 | 0.00 | 0.00 | 0.00 | 91 | 1029.2 | |
| 20260903203018 | 42 | 0.0 | 1.0 | 0.00 | 0.00 | 0.00 | 90 | 1029.1 | |
| 20260903200017 | 43 | 0.0 | 4.0 | 0.00 | 0.00 | 0.00 | 89 | 1028.7 | |
| 20260903193018 | 43 | 135 | 1.0 | 4.0 | 0.00 | 0.00 | 0.00 | 87 | 1028.9 |
| 20260903190017 | 43 | 0 | 1.0 | 4.0 | 0.00 | 0.00 | 0.00 | 85 | 1028.5 |
| 20260903183018 | 44 | 315 | 1.0 | 6.0 | 0.00 | 0.00 | 0.00 | 81 | 1028.6 |
| 20260903180017 | 44 | 135 | 1.0 | 4.0 | 0.00 | 0.00 | 0.00 | 86 | 1028.4 |
| 20260903173017 | 43 | 0.0 | 2.0 | 0.00 | 0.00 | 0.00 | 85 | 1028.1 | |
| 20260903170019 | 44 | 23 | 1.0 | 6.0 | 0.00 | 0.02 | 0.00 | 83 | 1028.6 |
| 20260903163017 | 45 | 158 | 1.0 | 6.0 | 0.00 | 0.03 | 0.00 | 82 | 1028.7 |
| 20260903160057 | 45 | 338 | 2.0 | 7.0 | 0.00 | 0.03 | 0.00 | 83 | 1028.7 |
| 20260903153017 | 44 | 90 | 1.0 | 4.0 | 0.00 | 0.03 | 0.00 | 86 | 1029.0 |
| 20260903150019 | 44 | 113 | 1.0 | 10.0 | 0.00 | 0.03 | 0.00 | 86 | 1029.4 |
| 20260903143037 | 44 | 270 | 1.0 | 7.0 | 0.00 | 0.03 | 0.00 | 86 | 1028.7 |
| 20260903140057 | 44 | 270 | 2.0 | 9.0 | 0.00 | 0.03 | 0.03 | 86 | 1028.3 |
| 20260903133018 | 44 | 270 | 2.0 | 7.0 | 0.00 | 0.03 | 0.03 | 86 | 1028.4 |
| 20260903130018 | 44 | 113 | 1.0 | 9.0 | 0.00 | 0.03 | 0.03 | 87 | 1028.7 |
| 20260903123017 | 44 | 248 | 2.0 | 9.0 | 0.00 | 0.06 | 0.03 | 87 | 1028.5 |
| 20260903120018 | 44 | 270 | 1.0 | 8.0 | 0.00 | 0.06 | 0.03 | 88 | 1028.0 |
| 20260903113058 | 45 | 248 | 2.0 | 11.0 | 0.00 | 0.06 | 0.03 | 88 | 1028.5 |
| 20260903110017 | 45 | 270 | 2.0 | 7.0 | 0.00 | 0.06 | 0.03 | 87 | 1028.3 |
| 20260903103017 | 45 | 270 | 2.0 | 8.0 | 0.00 | 0.06 | 0.03 | 88 | 1027.8 |